Tomini Victory — V7XE9 — position and weather

sailwx.info

Track history (hours):
 
Tides and Currents Weather Stations Pressure Air Temp Water Temp Dewpoint Dewpoint Depression Visibility Wind Speed Wind Dir Waves Ship Positions

Tomini Victory

Last reported at 2018-Jun-11 17:42 UTC. Time now 2018-Jul-20 02:58 UTC.
Position N 09°11' W 079°52'.
Warning: this ship's position is 38 days out of date.

Length 190 m; draft 12 m.

Type: Cargo ship. MMSI: 538004462.

Date/timePositionNaut miles runAvg speedWind from/ knotsBaromVisibWave heightAir tempDewpointWater temp
2018-Jun-11 17:42N 09°11' W 079°52'2 7.2
2018-Jun-11 17:28N 09°11' W 079°53'3 6.2
2018-Jun-11 17:00N 09°13' W 079°56'2 4.6
2018-Jun-11 16:28N 09°16' W 079°55'0 0.0
2018-Jun-11 15:58N 09°16' W 079°55'0 0.0
2018-Jun-11 15:28N 09°16' W 079°55'0 0.1
2018-Jun-11 14:58N 09°16' W 079°55'0 0.1
2018-Jun-11 14:28N 09°15' W 079°55'0 0.0
2018-Jun-11 13:58N 09°15' W 079°55'0 0.0
2018-Jun-11 13:16N 09°15' W 079°55'0 0.0
2018-Jun-11 12:52N 09°15' W 079°55'0 0.0
2018-Jun-11 12:22N 09°16' W 079°55'0 0.0
2018-Jun-11 11:55N 09°15' W 079°55'0 0.1
2018-Jun-11 11:22N 09°15' W 079°55'0 0.0
2018-Jun-11 10:58N 09°15' W 079°55'0 0.0
2018-Jun-11 10:28N 09°15' W 079°55'0 0.0
2018-Jun-11 09:58N 09°16' W 079°55'0 0.0
2018-Jun-11 09:19N 09°16' W 079°55'0 0.0
2018-Jun-11 08:58N 09°16' W 079°55'0 0.0
2018-Jun-11 08:28N 09°15' W 079°55'0 0.0
2018-Jun-11 07:52N 09°15' W 079°55'0 0.0
2018-Jun-11 07:28N 09°15' W 079°55'0 0.0
2018-Jun-11 06:58N 09°15' W 079°55'0 0.0
2018-Jun-11 06:28N 09°15' W 079°55'0 0.1
2018-Jun-11 05:55N 09°16' W 079°55'0 0.1
2018-Jun-11 05:25N 09°15' W 079°55'0 0.0
2018-Jun-11 04:58N 09°15' W 079°55'0 0.0
2018-Jun-11 04:19N 09°15' W 079°55'0 0.0
2018-Jun-11 03:55N 09°15' W 079°55'0 0.0
2018-Jun-11 03:25N 09°15' W 079°55'0 0.1
2018-Jun-11 02:58N 09°16' W 079°55'0 0.0
2018-Jun-11 02:04N 09°16' W 079°55'0 0.1
2018-Jun-11 01:58N 09°15' W 079°55'0 0.0
2018-Jun-11 01:28N 09°15' W 079°55'0 0.0
2018-Jun-11 00:55N 09°15' W 079°55'0 0.1
2018-Jun-11 00:28N 09°15' W 079°55'0 0.1
2018-Jun-10 23:58N 09°15' W 079°55'0 0.0
2018-Jun-10 22:25N 09°15' W 079°55'0 0.0
2018-Jun-10 21:58N 09°15' W 079°55'0 0.0
2018-Jun-10 21:19N 09°15' W 079°55'0 0.0
2018-Jun-10 20:13N 09°15' W 079°55'0 0.0
2018-Jun-10 18:52N 09°15' W 079°55'0 0.1
2018-Jun-10 18:22N 09°15' W 079°55'0 0.0
2018-Jun-10 14:13N 09°15' W 079°55'0 0.0
2018-Jun-10 13:22N 09°15' W 079°55'0 0.0
2018-Jun-10 12:49N 09°15' W 079°55'0 0.0
2018-Jun-10 12:28N 09°15' W 079°55'0 0.0
2018-Jun-10 11:58N 09°15' W 079°55'0 0.1
2018-Jun-10 11:28N 09°15' W 079°55'0 0.0
2018-Jun-10 07:43N 09°15' W 079°55'0 0.0
2018-Jun-10 07:16N 09°15' W 079°55'0 0.0
2018-Jun-10 06:58N 09°15' W 079°55'0 0.1
2018-Jun-10 06:28N 09°15' W 079°55'0 0.1
2018-Jun-10 05:55N 09°15' W 079°55'0 0.0
2018-Jun-10 05:28N 09°15' W 079°55'0 0.0
2018-Jun-10 04:58N 09°15' W 079°55'0 0.0
2018-Jun-10 04:28N 09°15' W 079°55'11 0.4
2018-Jun-09 01:03N 09°26' W 079°56'0 0.1
2018-Jun-09 01:00N 09°26' W 079°56'0 0.0
2018-Jun-09 00:30N 09°26' W 079°56'0 0.0
2018-Jun-08 23:57N 09°26' W 079°56'0 0.0
2018-Jun-08 23:24N 09°26' W 079°56'0 0.0
2018-Jun-08 23:00N 09°26' W 079°56'0 0.0
2018-Jun-08 22:30N 09°26' W 079°56'0 0.0
2018-Jun-08 21:48N 09°26' W 079°56'0 0.0
2018-Jun-08 21:24N 09°26' W 079°56'0 0.0
2018-Jun-08 20:54N 09°26' W 079°56'0 0.1
2018-Jun-08 20:30N 09°26' W 079°56'0 0.1
2018-Jun-08 20:00N 09°26' W 079°56'0 0.0
2018-Jun-08 19:30N 09°26' W 079°56'0 0.0
2018-Jun-08 19:00N 09°26' W 079°56'0 0.1
2018-Jun-08 18:30N 09°26' W 079°56'0 0.7
2018-Jun-08 18:00N 09°26' W 079°56'2 3.9
2018-Jun-08 17:30N 09°27' W 079°55'  
Track history (hours):
 
Tides and Currents Weather Stations Pressure Air Temp Water Temp Dewpoint Dewpoint Depression Visibility Wind Speed Wind Dir Waves Ship Positions

Tomini Victory

Last reported at 2018-Jun-11 17:42 UTC. Time now 2018-Jul-20 02:58 UTC.
Position N 09°11' W 079°52'.
Warning: this ship's position is 38 days out of date.

Length 190 m; draft 12 m.

Type: Cargo ship. MMSI: 538004462.

Date/timePositionNaut miles runAvg speedWind from/ knotsBaromVisibWave heightAir tempDewpointWater temp
2018-Jun-11 17:42N 09°11' W 079°52'2 7.2
2018-Jun-11 17:28N 09°11' W 079°53'3 6.2
2018-Jun-11 17:00N 09°13' W 079°56'2 4.6
2018-Jun-11 16:28N 09°16' W 079°55'0 0.0
2018-Jun-11 15:58N 09°16' W 079°55'0 0.0
2018-Jun-11 15:28N 09°16' W 079°55'0 0.1
2018-Jun-11 14:58N 09°16' W 079°55'0 0.1
2018-Jun-11 14:28N 09°15' W 079°55'0 0.0
2018-Jun-11 13:58N 09°15' W 079°55'0 0.0
2018-Jun-11 13:16N 09°15' W 079°55'0 0.0
2018-Jun-11 12:52N 09°15' W 079°55'0 0.0
2018-Jun-11 12:22N 09°16' W 079°55'0 0.0
2018-Jun-11 11:55N 09°15' W 079°55'0 0.1
2018-Jun-11 11:22N 09°15' W 079°55'0 0.0
2018-Jun-11 10:58N 09°15' W 079°55'0 0.0
2018-Jun-11 10:28N 09°15' W 079°55'0 0.0
2018-Jun-11 09:58N 09°16' W 079°55'0 0.0
2018-Jun-11 09:19N 09°16' W 079°55'0 0.0
2018-Jun-11 08:58N 09°16' W 079°55'0 0.0
2018-Jun-11 08:28N 09°15' W 079°55'0 0.0
2018-Jun-11 07:52N 09°15' W 079°55'0 0.0
2018-Jun-11 07:28N 09°15' W 079°55'0 0.0
2018-Jun-11 06:58N 09°15' W 079°55'0 0.0
2018-Jun-11 06:28N 09°15' W 079°55'0 0.1
2018-Jun-11 05:55N 09°16' W 079°55'0 0.1
2018-Jun-11 05:25N 09°15' W 079°55'0 0.0
2018-Jun-11 04:58N 09°15' W 079°55'0 0.0
2018-Jun-11 04:19N 09°15' W 079°55'0 0.0
2018-Jun-11 03:55N 09°15' W 079°55'0 0.0
2018-Jun-11 03:25N 09°15' W 079°55'0 0.1
2018-Jun-11 02:58N 09°16' W 079°55'0 0.0
2018-Jun-11 02:04N 09°16' W 079°55'0 0.1
2018-Jun-11 01:58N 09°15' W 079°55'0 0.0
2018-Jun-11 01:28N 09°15' W 079°55'0 0.0
2018-Jun-11 00:55N 09°15' W 079°55'0 0.1
2018-Jun-11 00:28N 09°15' W 079°55'0 0.1
2018-Jun-10 23:58N 09°15' W 079°55'0 0.0
2018-Jun-10 22:25N 09°15' W 079°55'0 0.0
2018-Jun-10 21:58N 09°15' W 079°55'0 0.0
2018-Jun-10 21:19N 09°15' W 079°55'0 0.0
2018-Jun-10 20:13N 09°15' W 079°55'0 0.0
2018-Jun-10 18:52N 09°15' W 079°55'0 0.1
2018-Jun-10 18:22N 09°15' W 079°55'0 0.0
2018-Jun-10 14:13N 09°15' W 079°55'0 0.0
2018-Jun-10 13:22N 09°15' W 079°55'0 0.0
2018-Jun-10 12:49N 09°15' W 079°55'0 0.0
2018-Jun-10 12:28N 09°15' W 079°55'0 0.0
2018-Jun-10 11:58N 09°15' W 079°55'0 0.1
2018-Jun-10 11:28N 09°15' W 079°55'0 0.0
2018-Jun-10 07:43N 09°15' W 079°55'0 0.0
2018-Jun-10 07:16N 09°15' W 079°55'0 0.0
2018-Jun-10 06:58N 09°15' W 079°55'0 0.1
2018-Jun-10 06:28N 09°15' W 079°55'0 0.1
2018-Jun-10 05:55N 09°15' W 079°55'0 0.0
2018-Jun-10 05:28N 09°15' W 079°55'0 0.0
2018-Jun-10 04:58N 09°15' W 079°55'0 0.0
2018-Jun-10 04:28N 09°15' W 079°55'11 0.4
2018-Jun-09 01:03N 09°26' W 079°56'0 0.1
2018-Jun-09 01:00N 09°26' W 079°56'0 0.0
2018-Jun-09 00:30N 09°26' W 079°56'0 0.0
2018-Jun-08 23:57N 09°26' W 079°56'0 0.0
2018-Jun-08 23:24N 09°26' W 079°56'0 0.0
2018-Jun-08 23:00N 09°26' W 079°56'0 0.0
2018-Jun-08 22:30N 09°26' W 079°56'0 0.0
2018-Jun-08 21:48N 09°26' W 079°56'0 0.0
2018-Jun-08 21:24N 09°26' W 079°56'0 0.0
2018-Jun-08 20:54N 09°26' W 079°56'0 0.1
2018-Jun-08 20:30N 09°26' W 079°56'0 0.1
2018-Jun-08 20:00N 09°26' W 079°56'0 0.0
2018-Jun-08 19:30N 09°26' W 079°56'0 0.0
2018-Jun-08 19:00N 09°26' W 079°56'0 0.1
2018-Jun-08 18:30N 09°26' W 079°56'0 0.7
2018-Jun-08 18:00N 09°26' W 079°56'2 3.9
2018-Jun-08 17:30N 09°27' W 079°55'  

Dump ship's entire track history